ADDS METAR Data INFO
IDs: Format: Raw Decoded Include TAF

Data at: 1241 UTC 19 Oct 2017

PAKK 191156Z AUTO 00000KT 10SM SCT041 OVC085 M08/M11 A2951 RMK AO2 SLP007 T10781106 11056 21089 58006 FZRANO
PAKK 191056Z AUTO 34005KT 10SM FEW080 M08/M11 A2952 RMK AO2 SLP010 T10781106 FZRANO
PAKK 190956Z AUTO 31007KT 10SM CLR M09/M11 A2953 RMK AO2 SLP014 T10891106 FZRANO
PAKK 190856Z AUTO 33006KT 10SM CLR M08/M10 A2953 RMK AO2 SLP013 T10831100 400061083 53001 FZRANO
PAKK 190756Z AUTO 32005KT 10SM CLR M08/M11 A2952 RMK AO2 SLP012 T10831106 FZRANO
PAKK 190656Z AUTO 32003KT 10SM CLR M07/M09 A2952 RMK AO2 SLP012 T10721094 FZRANO
PAKK 190556Z AUTO 00000KT 10SM OVC031 M06/M08 A2952 RMK AO2 SLP012 T10561083 11006 21056 51009 FZRANO
PAKK 190456Z AUTO 33003KT 10SM OVC037 M05/M08 A2952 RMK AO2 SLP011 T10501083 FZRANO
PAKK 190356Z AUTO 00000KT 10SM FEW120 M04/M07 A2951 RMK AO2 SLP007 T10441072 FZRANO
PAKK 190256Z AUTO 35004KT 10SM CLR M03/M07 A2950 RMK AO2 SLP003 T10331067 53006 FZRANO
PAKK 190156Z AUTO 32004KT 10SM CLR M02/M07 A2948 RMK AO2 SLP997 T10171067 FZRANO
PAKK 190056Z AUTO VRB04KT 10SM OVC050 M02/M07 A2948 RMK AO2 SLP997 T10171067 FZRANO
PAKK 182356Z AUTO 33007KT 10SM FEW034 OVC050 M01/M08 A2948 RMK AO2 SLP997 T10061078 10006 21022 50001 FZRANO
PAKK 182256Z AUTO 36005KT 10SM FEW050 00/M07 A2948 RMK AO2 SLP997 T00001072 FZRANO
PAKK 182156Z AUTO 34007KT 300V010 10SM FEW050 00/M06 A2948 RMK AO2 SLP998 T00001056 FZRANO
PAKK 182056Z AUTO 32009KT 10SM SCT055 M02/M06 A2948 RMK AO2 SLP996 T10171056 51008 FZRANO
PAKK 181956Z AUTO 31006KT 10SM FEW050 M02/M04 A2948 RMK AO2 SLP996 T10171039 FZRANO
PAKK 181912Z AUTO 32005KT 10SM SCT007 M02/M04 A2947 RMK AO2 FZRANO
PAKK 181856Z AUTO 32007KT 10SM BKN007 BKN085 M02/M03 A2947 RMK AO2 SLP993 T10171033 FZRANO
PAKK 181809Z AUTO 32007KT 10SM BKN007 BKN021 OVC090 M02/M03 A2946 RMK AO2 FZRANO
PAKK 181756Z AUTO 31008KT 9SM FEW007 OVC090 M02/M03 A2945 RMK AO2 SNB25E52 SLP988 P0000 60000 T10221033 11022 21044 56002 FZRANO
PAKK 181656Z AUTO 31008KT 10SM BKN035 OVC095 M02/M03 A2945 RMK AO2 SLP988 T10221033 FZRANO
PAKK 181556Z AUTO 31009KT 10SM FEW070 OVC100 M03/M04 A2946 RMK AO2 SLP989 T10281039 FZRANO
PAKK 181456Z AUTO 33006KT 10SM SCT014 BKN075 BKN110 M03/M04 A2946 RMK AO2 SLP990 60000 T10281039 56005 FZRANO
PAKK 181452Z AUTO 32006KT 10SM SCT014 BKN075 BKN110 M03/M04 A2946 RMK AO2 FZRANO
PAKK 181440Z AUTO VRB04KT 10SM BKN014 BKN110 M03/M04 A2946 RMK AO2 FZRANO
PAKK 181356Z AUTO 33007KT 10SM FEW026 SCT031 M03/M04 A2947 RMK AO2 SNB24E41 SLP993 P0000 T10281039 FZRANO
PAKK 181256Z AUTO 33005KT 10SM SCT024 M04/M04 A2947 RMK AO2 SLP995 T10391044 FZRANO
PAKK 181156Z AUTO 02004KT 10SM CLR M04/M06 A2948 RMK AO2 SLP998 60000 T10441056 11022 21044 51002 FZRANO
PAKK 181056Z AUTO 32008KT 10SM CLR M04/M06 A2948 RMK AO2 SLP997 T10391056 FZRANO
PAKK 180956Z AUTO 33005KT 10SM CLR M03/M04 A2948 RMK AO2 SLP998 T10331044 FZRANO
PAKK 180856Z AUTO 33004KT 10SM FEW120 M03/M04 A2948 RMK AO2 SLP996 60000 T10281039 400221028 53002 FZRANO
PAKK 180756Z AUTO 30004KT 9SM BKN030 M02/M03 A2947 RMK AO2 SNE51 SLP995 P0000 T10221033 FZRANO
PAKK 180753Z AUTO 30005KT 9SM BKN030 M02/M03 A2947 RMK AO2 SNE51 P0000 FZRANO
PAKK 180738Z AUTO 31006KT 9SM -SN BKN028 M02/M03 A2947 RMK AO2 P0000 FZRANO
PAKK 180656Z AUTO 31004KT 8SM -SN BKN034 OVC085 M02/M03 A2947 RMK AO2 SNB33 SLP994 P0000 T10221033 FZRANO
PAKK 180556Z AUTO 31005KT 10SM BKN080 M02/M04 A2947 RMK AO2 SLP993 60000 T10221039 10022 21022 52004 FZRANO
PAKK 180456Z AUTO 29005KT 10SM FEW075 SCT110 M02/M03 A2946 RMK AO2 SLP991 T10171033 FZRANO
PAKK 180356Z AUTO 30004KT 10SM BKN060 M01/M03 A2946 RMK AO2 SNE23 SLP989 P0000 T10111028 FZRANO
PAKK 180256Z AUTO 32007KT 9SM -SN SCT031 M01/M02 A2945 RMK AO2 RAB0159E01SNB01 SLP988 P0000 60000 T10061022 55001 FZRANO
PAKK 180213Z AUTO VRB06KT 4SM -SN BR FEW008 SCT017 SCT025 00/M02 A2945 RMK AO2 RAB0159E01SNB01 P0000 FZRANO
PAKK 180210Z AUTO 34007KT 1 1/4SM -SN BR FEW008 SCT017 BKN025 00/M02 A2945 RMK AO2 RAB0159E01SNB01 P0000 FZRANO
PAKK 180206Z AUTO 33008KT 3/4SM -SN BR FEW008 SCT017 BKN025 01/M02 A2945 RMK AO2 RAB0159E01SNB01 P0000 FZRANO
PAKK 180201Z AUTO 33010KT 1 1/2SM -SN FEW008 01/M02 A2945 RMK AO2 RAB0159E01SNB01 P0000 FZRANO
PAKK 180156Z AUTO 32008KT 10SM CLR 01/M02 A2945 RMK AO2 SLP986 T00061022 FZRANO
PAKK 180056Z AUTO 31007KT 10SM FEW015 02/M02 A2945 RMK AO2 SLP988 T00171017 FZRANO